Time;durP1;ratioP1;P1;durP2;ratioP2;P2;SDS_P1;SDS_P2;PMS_P1;PMS_P2;Temp;Humidity;BMP_temperature;BMP_pressure;BME280_temperature;BME280_humidity;BME280_pressure;Samples;Min_cycle;Max_cycle;Signal;HPM_P1;HPM_P2
2024/02/26 00:02:05;;;;;;;18.23;7.03;;;;;;;6.67;84.42;94250.06;4996625;28;20099;-72
2024/02/26 00:04:31;;;;;;;8.60;6.28;;;;;;;6.92;84.13;94277.41;5029415;28;20033;-72
2024/02/26 00:28:50;;;;;;;10.45;8.35;;;;;;;7.46;83.78;94270.63;5149648;27;20384;-80
2024/02/26 00:31:15;;;;;;;12.80;8.07;;;;;;;7.59;83.13;94271.28;5149850;27;20211;-80
2024/02/26 00:33:40;;;;;;;11.15;7.78;;;;;;;7.65;82.28;94251.06;5149761;27;20022;-80
2024/02/26 00:36:06;;;;;;;12.68;8.18;;;;;;;7.61;82.30;94248.75;5148339;27;20404;-80
2024/02/26 00:38:31;;;;;;;13.10;7.57;;;;;;;7.51;82.63;94223.75;5148359;27;20068;-80
2024/02/26 00:40:57;;;;;;;12.02;9.00;;;;;;;7.58;82.65;94246.41;5131038;27;20019;-80
2024/02/26 00:43:22;;;;;;;21.23;16.55;;;;;;;7.59;82.70;94253.19;5148267;27;20038;-80
2024/02/26 00:45:48;;;;;;;22.65;14.85;;;;;;;7.56;83.22;94253.44;5149580;27;20027;-80
2024/02/26 00:48:13;;;;;;;25.63;15.55;;;;;;;7.42;83.77;94260.66;5148592;27;20026;-80
2024/02/26 00:50:39;;;;;;;12.35;8.70;;;;;;;7.34;83.80;94243.19;5131093;27;20100;-79
2024/02/26 00:53:05;;;;;;;13.05;8.77;;;;;;;7.31;84.63;94253.75;5148344;27;20147;-80
2024/02/26 00:55:30;;;;;;;12.77;8.40;;;;;;;7.29;85.00;94250.47;5148233;27;20499;-80
2024/02/26 00:57:56;;;;;;;11.18;8.18;;;;;;;7.33;84.19;94244.13;5147851;27;20027;-80
2024/02/26 01:00:21;;;;;;;12.65;7.88;;;;;;;7.33;83.84;94226.03;5130732;27;20030;-81
2024/02/26 01:02:47;;;;;;;10.77;8.00;;;;;;;7.45;84.10;94243.16;5148089;27;20034;-80
2024/02/26 01:05:13;;;;;;;11.65;8.10;;;;;;;7.28;84.59;94239.31;5147962;27;20094;-80
2024/02/26 01:07:39;;;;;;;13.20;9.00;;;;;;;7.18;85.17;94228.06;5148111;27;20031;-80
2024/02/26 01:10:05;;;;;;;14.82;8.95;;;;;;;7.21;85.56;94234.75;5130711;27;20031;-80
2024/02/26 01:12:32;;;;;;;9.52;7.57;;;;;;;7.25;85.07;94216.31;5130747;27;20465;-80
2024/02/26 01:14:57;;;;;;;12.13;7.95;;;;;;;7.50;83.71;94233.25;5148955;27;20031;-80
2024/02/26 01:17:23;;;;;;;12.32;8.43;;;;;;;7.42;83.93;94233.06;5147821;27;20499;-80
2024/02/26 01:19:48;;;;;;;11.68;7.22;;;;;;;7.67;83.53;94231.91;5130445;27;20027;-80
2024/02/26 01:22:13;;;;;;;13.25;7.65;;;;;;;7.71;83.14;94222.13;5113203;27;20556;-80
2024/02/26 01:24:39;;;;;;;11.32;7.68;;;;;;;7.67;82.87;94226.75;5147628;27;20469;-80
2024/02/26 01:27:04;;;;;;;9.43;6.75;;;;;;;7.59;81.97;94218.78;5113021;27;20055;-81
2024/02/26 01:29:30;;;;;;;7.90;6.88;;;;;;;7.28;83.09;94204.91;5134829;27;20023;-80
2024/02/26 01:31:56;;;;;;;9.38;7.10;;;;;;;7.61;82.90;94235.81;5116550;27;20625;-80
2024/02/26 01:34:21;;;;;;;10.55;7.57;;;;;;;7.50;82.22;94230.69;5134841;27;20111;-80
2024/02/26 01:36:47;;;;;;;11.52;8.13;;;;;;;7.43;82.68;94228.69;5133522;27;20034;-81
2024/02/26 01:39:13;;;;;;;10.38;8.13;;;;;;;7.31;82.77;94215.00;5116399;27;20019;-79
2024/02/26 01:41:39;;;;;;;9.77;7.47;;;;;;;7.33;82.99;94232.03;5116311;27;20034;-81
2024/02/26 01:44:06;;;;;;;10.07;7.53;;;;;;;7.33;82.83;94210.53;5116493;27;20102;-80
2024/02/26 01:46:32;;;;;;;10.65;7.85;;;;;;;7.31;83.12;94209.84;5099356;27;20039;-80
2024/02/26 01:48:57;;;;;;;11.30;7.68;;;;;;;7.45;82.57;94221.66;5116282;27;20404;-80
2024/02/26 01:51:23;;;;;;;10.63;7.53;;;;;;;7.49;82.52;94213.50;5116015;27;20031;-81
2024/02/26 01:53:48;;;;;;;12.90;8.50;;;;;;;7.34;82.48;94207.81;5116132;27;20019;-81
2024/02/26 01:56:14;;;;;;;11.25;8.18;;;;;;;7.33;82.39;94215.72;5133021;27;20046;-81
2024/02/26 01:58:39;;;;;;;11.13;7.93;;;;;;;7.31;82.09;94192.56;5099140;27;20027;-79
2024/02/26 02:01:05;;;;;;;10.27;7.43;;;;;;;7.30;82.25;94200.41;5115797;27;20053;-81
2024/02/26 02:03:30;;;;;;;9.88;7.93;;;;;;;7.31;82.25;94199.50;5116055;27;20023;-81
2024/02/26 02:05:55;;;;;;;18.15;13.80;;;;;;;7.24;83.97;94213.84;5132939;27;20072;-81
2024/02/26 02:08:21;;;;;;;21.25;15.00;;;;;;;7.15;84.31;94205.88;5132840;27;20027;-81
2024/02/26 02:10:49;;;;;;;25.10;17.50;;;;;;;6.85;85.56;94191.03;5115891;27;20030;-80
2024/02/26 02:13:15;;;;;;;17.92;14.77;;;;;;;7.02;85.97;94205.22;5099397;27;20038;-81
2024/02/26 02:15:40;;;;;;;21.17;14.85;;;;;;;7.26;84.96;94204.19;5115748;27;20031;-81
2024/02/26 02:18:07;;;;;;;20.70;13.32;;;;;;;7.33;84.43;94207.97;5115675;27;20042;-81
2024/02/26 02:20:33;;;;;;;16.30;11.63;;;;;;;7.27;84.18;94204.09;5115503;27;20176;-80
2024/02/26 02:22:59;;;;;;;11.30;8.02;;;;;;;7.23;83.99;94210.44;5115880;27;20023;-81
2024/02/26 02:25:24;;;;;;;11.32;8.63;;;;;;;7.30;83.42;94200.41;5115606;27;20015;-81
2024/02/26 02:27:50;;;;;;;11.23;7.90;;;;;;;7.33;83.27;94208.78;5115455;27;20047;-80
2024/02/26 02:30:16;;;;;;;11.57;8.27;;;;;;;7.42;82.66;94209.78;5115566;27;20019;-81
2024/02/26 02:32:41;;;;;;;12.10;7.72;;;;;;;7.35;82.07;94200.88;5115752;27;20385;-81
2024/02/26 02:35:07;;;;;;;10.95;8.13;;;;;;;7.41;82.04;94215.91;5115274;27;20023;-81
2024/02/26 02:37:32;;;;;;;11.88;8.00;;;;;;;7.31;82.20;94207.25;5115260;27;20038;-81
2024/02/26 02:39:57;;;;;;;11.40;7.85;;;;;;;7.19;82.46;94200.44;5132654;27;20472;-81
2024/02/26 02:42:23;;;;;;;10.40;8.00;;;;;;;7.30;82.07;94208.16;5132204;27;20038;-81
2024/02/26 02:44:49;;;;;;;10.05;7.95;;;;;;;7.40;82.17;94222.00;5098214;27;20019;-80
2024/02/26 02:47:14;;;;;;;12.43;8.27;;;;;;;7.12;82.64;94213.84;5132245;27;20080;-82
2024/02/26 02:49:40;;;;;;;11.02;8.43;;;;;;;7.36;81.82;94220.63;5132154;27;20022;-80
2024/02/26 02:52:05;;;;;;;10.85;8.35;;;;;;;7.37;81.51;94204.97;5132119;27;20035;-81
2024/02/26 02:54:31;;;;;;;12.38;8.60;;;;;;;7.24;82.36;94219.00;5132263;27;20034;-81
2024/02/26 02:56:56;;;;;;;12.18;8.60;;;;;;;7.40;81.67;94224.59;5114742;27;20415;-80
2024/02/26 02:59:22;;;;;;;9.75;7.63;;;;;;;7.41;81.48;94210.75;5133333;27;20476;-81
2024/02/26 03:01:47;;;;;;;11.98;8.23;;;;;;;7.39;81.14;94223.78;5114863;27;20035;-81
2024/02/26 03:04:12;;;;;;;11.52;8.65;;;;;;;7.34;81.12;94222.50;5131966;27;20027;-82
2024/02/26 03:06:38;;;;;;;13.30;8.85;;;;;;;7.15;82.12;94213.63;5114706;27;20042;-81
2024/02/26 03:09:03;;;;;;;14.15;9.15;;;;;;;7.28;82.08;94221.22;5114596;27;20019;-81
2024/02/26 03:11:29;;;;;;;12.80;8.35;;;;;;;7.15;82.22;94200.69;5133058;27;20031;-81
2024/02/26 03:13:55;;;;;;;10.80;8.52;;;;;;;7.15;82.69;94210.22;5131933;27;20045;-81
2024/02/26 03:16:20;;;;;;;10.68;8.45;;;;;;;7.32;82.21;94222.63;5131490;27;20058;-81
2024/02/26 03:18:45;;;;;;;11.48;8.40;;;;;;;7.33;82.20;94229.44;5131860;27;20404;-80
2024/02/26 03:21:11;;;;;;;17.05;8.65;;;;;;;7.29;82.34;94207.34;5132724;27;20031;-80
2024/02/26 03:23:37;;;;;;;10.10;8.05;;;;;;;7.39;81.87;94204.88;5132965;27;20023;-81
2024/02/26 03:26:05;;;;;;;12.40;8.88;;;;;;;7.46;81.62;94197.44;5114297;27;20114;-80
2024/02/26 03:28:32;;;;;;;11.48;8.18;;;;;;;7.57;81.70;94218.06;5131339;27;20134;-81
2024/02/26 03:30:58;;;;;;;13.68;8.15;;;;;;;7.57;80.90;94205.97;5131393;27;20026;-80
2024/02/26 03:33:24;;;;;;;10.57;8.18;;;;;;;7.47;81.29;94199.91;5132506;27;20031;-81
2024/02/26 03:35:49;;;;;;;9.20;7.68;;;;;;;7.58;80.52;94171.44;5114059;27;20034;-80
2024/02/26 03:38:14;;;;;;;11.20;8.23;;;;;;;7.51;81.16;94190.16;5115428;27;20031;-81
2024/02/26 03:40:40;;;;;;;10.32;7.90;;;;;;;7.55;81.83;94200.13;5109791;28;20516;-80
2024/02/26 03:43:07;;;;;;;8.95;8.02;;;;;;;7.59;81.68;94196.34;5108558;28;20038;-80
2024/02/26 03:45:33;;;;;;;12.57;8.15;;;;;;;7.53;81.23;94189.06;5093085;28;20092;-79
2024/02/26 03:47:58;;;;;;;12.40;8.52;;;;;;;7.43;81.20;94164.91;5110670;28;20405;-80
2024/02/26 03:50:23;;;;;;;11.07;7.75;;;;;;;7.42;81.48;94178.78;5093469;28;20522;-81
2024/02/26 03:52:49;;;;;;;9.85;7.65;;;;;;;7.69;80.93;94185.22;5110244;28;20550;-79
2024/02/26 03:55:15;;;;;;;9.18;7.35;;;;;;;7.72;80.55;94200.53;5110403;28;20412;-81
2024/02/26 03:57:40;;;;;;;11.00;7.63;;;;;;;7.69;80.73;94198.16;5110287;28;20035;-81
2024/02/26 04:00:06;;;;;;;9.35;7.60;;;;;;;7.81;80.58;94197.19;5076542;28;20431;-81
2024/02/26 04:02:32;;;;;;;10.07;7.32;;;;;;;7.89;79.90;94191.38;5111930;28;20485;-81
2024/02/26 04:04:59;;;;;;;9.43;6.78;;;;;;;7.74;80.21;94191.66;5093389;28;20028;-81
2024/02/26 04:07:24;;;;;;;11.43;7.45;;;;;;;7.59;81.39;94196.34;5093592;28;20074;-81
2024/02/26 04:09:49;;;;;;;12.32;7.40;;;;;;;7.50;81.42;94178.19;5111575;28;20453;-81
2024/02/26 04:12:15;;;;;;;12.13;7.80;;;;;;;7.66;79.72;94193.25;5110380;28;20046;-81
2024/02/26 04:14:40;;;;;;;14.85;9.15;;;;;;;7.59;80.04;94183.41;5110305;28;20024;-81
2024/02/26 04:17:06;;;;;;;16.20;8.38;;;;;;;7.71;80.23;94191.09;5093100;28;20066;-82
2024/02/26 04:19:32;;;;;;;14.27;7.95;;;;;;;7.67;80.50;94184.56;5111412;28;20024;-80
2024/02/26 04:21:57;;;;;;;9.95;6.88;;;;;;;7.80;79.84;94190.34;5110115;28;20031;-81
2024/02/26 04:24:23;;;;;;;11.07;6.75;;;;;;;7.76;80.11;94183.81;5093157;28;20114;-79
2024/02/26 04:26:49;;;;;;;7.57;6.20;;;;;;;7.74;79.50;94180.50;5109926;28;20397;-80
2024/02/26 04:29:15;;;;;;;7.53;6.20;;;;;;;7.55;79.29;94173.44;5110107;28;20024;-81
2024/02/26 04:31:42;;;;;;;13.02;8.60;;;;;;;7.51;79.96;94190.97;5092974;28;20047;-81
2024/02/26 04:34:07;;;;;;;10.48;7.13;;;;;;;7.26;80.88;94188.69;5110115;28;20411;-81
2024/02/26 04:36:33;;;;;;;10.68;6.72;;;;;;;7.44;80.07;94181.22;5109811;28;20096;-81
2024/02/26 04:38:58;;;;;;;10.73;7.32;;;;;;;7.29;80.31;94167.78;5093107;28;20020;-81
2024/02/26 04:41:24;;;;;;;12.32;9.25;;;;;;;7.08;81.74;94183.25;5076072;28;20040;-81
2024/02/26 04:43:49;;;;;;;10.20;7.80;;;;;;;7.36;81.15;94192.19;5111624;28;20062;-81
2024/02/26 04:46:15;;;;;;;11.93;8.35;;;;;;;7.22;80.44;94182.97;5109919;28;20058;-82
2024/02/26 04:48:41;;;;;;;14.93;10.13;;;;;;;7.12;81.20;94188.03;5093040;28;20031;-82
2024/02/26 04:51:07;;;;;;;16.20;13.27;;;;;;;7.22;81.10;94189.91;5109806;28;20023;-82
2024/02/26 04:53:32;;;;;;;22.90;19.35;;;;;;;7.11;81.11;94175.25;5075956;28;20504;-81
2024/02/26 04:55:58;;;;;;;23.08;15.25;;;;;;;7.07;80.69;94184.97;5109826;28;20019;-81
2024/02/26 04:58:23;;;;;;;22.23;14.98;;;;;;;6.87;81.73;94211.56;5075828;28;20516;-82
2024/02/26 05:00:49;;;;;;;23.33;16.85;;;;;;;6.51;83.36;94189.41;5109774;28;20057;-82
2024/02/26 05:03:15;;;;;;;18.95;15.23;;;;;;;6.67;83.49;94200.19;5111882;28;20077;-82
2024/02/26 05:05:42;;;;;;;18.52;13.85;;;;;;;6.99;82.04;94210.59;5113831;28;20027;-81
2024/02/26 05:08:07;;;;;;;17.63;13.43;;;;;;;6.94;82.11;94202.41;5096903;28;20024;-81
2024/02/26 05:10:33;;;;;;;15.88;11.52;;;;;;;7.00;81.81;94217.41;5079607;28;20031;-81
2024/02/26 05:12:59;;;;;;;14.35;10.15;;;;;;;6.93;81.83;94193.81;5096648;28;20130;-81
2024/02/26 05:15:24;;;;;;;14.27;10.80;;;;;;;7.00;81.41;94214.84;5096523;28;20416;-82
2024/02/26 05:17:50;;;;;;;9.75;7.72;;;;;;;6.93;81.89;94214.47;5113471;28;20519;-80
2024/02/26 05:20:15;;;;;;;11.35;8.85;;;;;;;6.94;80.46;94213.53;5113466;28;20040;-81
2024/02/26 05:22:41;;;;;;;10.77;8.05;;;;;;;6.82;80.88;94229.16;5113613;28;20394;-81
2024/02/26 05:25:07;;;;;;;12.93;8.52;;;;;;;6.77;81.75;94228.69;5114479;28;20055;-81
2024/02/26 05:27:32;;;;;;;10.93;7.22;;;;;;;6.70;81.63;94208.50;5113103;28;20151;-81
2024/02/26 05:29:58;;;;;;;9.55;7.20;;;;;;;6.80;81.70;94231.03;5114458;28;20024;-81
2024/02/26 05:32:23;;;;;;;8.38;6.50;;;;;;;6.79;81.41;94224.22;5096468;28;20027;-81
2024/02/26 05:34:48;;;;;;;7.93;6.25;;;;;;;6.68;81.84;94238.78;5096088;28;20031;-81
2024/02/26 05:37:14;;;;;;;8.32;6.60;;;;;;;6.59;83.02;94239.50;5095902;28;20036;-82
2024/02/26 05:39:39;;;;;;;8.20;6.00;;;;;;;6.61;82.47;94247.13;5079551;28;20036;-82
2024/02/26 05:42:05;;;;;;;9.85;6.95;;;;;;;6.46;84.04;94236.19;5096016;28;20035;-81
2024/02/26 05:44:30;;;;;;;15.85;9.77;;;;;;;6.51;84.10;94247.00;5112744;28;20027;-81
2024/02/26 05:46:56;;;;;;;23.40;16.00;;;;;;;6.38;84.14;94251.44;5095714;28;20035;-81
2024/02/26 05:49:22;;;;;;;18.98;11.68;;;;;;;6.36;85.08;94243.00;5112719;28;20020;-82
2024/02/26 05:51:47;;;;;;;15.00;9.70;;;;;;;6.39;85.52;94248.75;5096067;28;20473;-81
2024/02/26 05:54:13;;;;;;;11.02;8.68;;;;;;;6.45;85.44;94234.56;5095785;28;20027;-81
2024/02/26 05:56:39;;;;;;;13.70;8.93;;;;;;;6.61;85.19;94247.94;5095804;28;20036;-82
2024/02/26 05:59:05;;;;;;;11.32;8.52;;;;;;;6.57;85.37;94246.53;5112837;28;20024;-82
2024/02/26 06:01:30;;;;;;;12.05;8.05;;;;;;;6.54;85.51;94262.25;5078927;28;20038;-81
2024/02/26 06:03:56;;;;;;;11.23;8.02;;;;;;;6.59;85.03;94243.84;5078882;28;20084;-80
2024/02/26 06:06:23;;;;;;;10.25;8.25;;;;;;;6.65;85.67;94254.50;5095464;28;20212;-82
2024/02/26 06:08:49;;;;;;;24.33;19.00;;;;;;;6.83;85.00;94266.97;5078888;28;20027;-81
2024/02/26 06:11:14;;;;;;;21.02;16.23;;;;;;;6.94;84.68;94259.22;5095563;28;20036;-82
2024/02/26 06:13:40;;;;;;;16.40;13.15;;;;;;;6.61;84.54;94216.97;5095425;28;20020;-81
2024/02/26 06:16:05;;;;;;;16.98;12.18;;;;;;;6.97;84.04;94264.13;5095274;28;20024;-82
2024/02/26 06:18:31;;;;;;;19.50;13.93;;;;;;;6.88;84.48;94263.09;5113466;28;20023;-80
2024/02/26 06:20:56;;;;;;;24.77;19.90;;;;;;;6.94;85.05;94265.19;5095336;28;20412;-81
2024/02/26 06:23:22;;;;;;;29.92;21.75;;;;;;;7.14;84.03;94276.56;5112104;28;20035;-82
2024/02/26 06:25:47;;;;;;;26.45;19.15;;;;;;;7.05;83.95;94263.53;5112249;28;20080;-82
2024/02/26 06:28:13;;;;;;;19.90;14.45;;;;;;;7.14;83.42;94260.25;5112268;28;20062;-82
2024/02/26 06:30:39;;;;;;;24.27;16.83;;;;;;;7.08;83.93;94271.88;5112146;28;20027;-81
2024/02/26 06:33:04;;;;;;;30.48;21.02;;;;;;;7.26;83.57;94271.38;5112247;28;20042;-82
2024/02/26 06:35:30;;;;;;;26.60;19.02;;;;;;;7.33;83.29;94270.78;5094833;28;20409;-80
2024/02/26 06:37:55;;;;;;;22.42;16.88;;;;;;;7.07;84.05;94262.47;5094849;28;20039;-82
2024/02/26 06:40:21;;;;;;;26.15;21.23;;;;;;;6.67;85.62;94244.06;5095106;28;20531;-80
2024/02/26 06:42:46;;;;;;;27.30;22.50;;;;;;;6.89;85.89;94269.88;5112025;28;20069;-82
2024/02/26 06:45:12;;;;;;;23.70;18.50;;;;;;;6.90;85.56;94268.13;5111796;28;20055;-82
2024/02/26 06:47:37;;;;;;;26.50;20.23;;;;;;;6.97;85.91;94271.88;5112019;28;20447;-82
2024/02/26 06:50:03;;;;;;;26.40;18.50;;;;;;;6.70;85.61;94231.75;5111916;28;20094;-82
2024/02/26 06:52:28;;;;;;;22.77;18.85;;;;;;;7.16;85.11;94266.13;5111592;28;20462;-82
2024/02/26 06:54:54;;;;;;;27.60;17.58;;;;;;;7.58;83.43;94264.50;5112078;28;20039;-82
2024/02/26 06:57:22;;;;;;;23.35;17.58;;;;;;;7.51;83.14;94254.75;5111510;28;20035;-83
2024/02/26 06:59:47;;;;;;;27.45;21.30;;;;;;;7.53;83.59;94261.44;5111682;28;20034;-82
2024/02/26 07:02:19;;;;;;;22.77;16.70;;;;;;;7.72;83.35;94254.81;5094350;28;20047;-82
2024/02/26 07:04:44;;;;;;;20.95;17.70;;;;;;;7.95;83.40;94273.66;5112674;28;20024;-82
2024/02/26 07:07:10;;;;;;;20.65;16.15;;;;;;;8.18;82.01;94264.81;5111567;28;20394;-83
2024/02/26 07:09:35;;;;;;;20.15;15.50;;;;;;;8.17;82.22;94275.31;5111485;28;20496;-81
2024/02/26 07:12:01;;;;;;;18.08;14.00;;;;;;;8.33;81.91;94288.63;5111370;28;20052;-82
2024/02/26 07:14:26;;;;;;;20.35;13.52;;;;;;;8.32;81.98;94281.00;5077247;28;20032;-83
2024/02/26 07:16:52;;;;;;;14.27;11.30;;;;;;;8.61;81.01;94296.72;5111242;28;20051;-82
2024/02/26 07:19:17;;;;;;;11.25;9.52;;;;;;;8.59;81.16;94294.25;5112576;28;20032;-82
2024/02/26 07:21:42;;;;;;;16.27;6.97;;;;;;;8.67;80.06;94288.47;5111190;28;20043;-83
2024/02/26 07:24:08;;;;;;;9.63;7.10;;;;;;;8.56;80.54;94280.75;5111315;28;20055;-82
2024/02/26 07:26:34;;;;;;;8.82;6.35;;;;;;;8.75;79.08;94285.19;5093281;28;20099;-83
2024/02/26 07:29:00;;;;;;;10.25;7.38;;;;;;;8.80;79.12;94281.28;5111076;28;20495;-82
2024/02/26 07:31:25;;;;;;;9.85;6.18;;;;;;;8.90;76.79;94268.38;5093880;28;20032;-83
2024/02/26 07:33:51;;;;;;;8.82;7.30;;;;;;;9.04;77.59;94273.22;5110951;28;20020;-81
2024/02/26 07:36:17;;;;;;;8.40;6.30;;;;;;;9.15;76.69;94286.06;5093880;28;20092;-82
2024/02/26 07:38:42;;;;;;;7.70;5.72;;;;;;;9.12;76.72;94283.75;5077135;28;20030;-81
2024/02/26 07:41:08;;;;;;;8.25;6.57;;;;;;;9.25;76.40;94293.88;5110851;28;20477;-83
2024/02/26 07:43:33;;;;;;;8.43;5.97;;;;;;;9.33;75.33;94291.47;5112340;28;20526;-82
2024/02/26 07:45:59;;;;;;;9.32;6.60;;;;;;;9.16;76.11;94290.31;5110845;28;20504;-82
2024/02/26 07:48:24;;;;;;;8.35;6.05;;;;;;;9.39;75.76;94297.88;5110848;28;20031;-83
2024/02/26 07:50:50;;;;;;;7.30;5.60;;;;;;;9.34;74.98;94282.72;5110567;28;20031;-81
2024/02/26 07:53:15;;;;;;;7.50;5.22;;;;;;;9.66;73.86;94286.06;5093826;28;20023;-83
2024/02/26 07:55:41;;;;;;;7.85;5.88;;;;;;;9.73;73.87;94287.19;5093921;28;20339;-82
2024/02/26 07:58:06;;;;;;;6.95;6.03;;;;;;;9.82;72.48;94292.34;5110772;28;20032;-82
2024/02/26 08:00:31;;;;;;;9.77;5.72;;;;;;;9.73;73.12;94292.38;5093562;28;20462;-83
2024/02/26 08:02:57;;;;;;;9.60;5.80;;;;;;;9.63;72.88;94292.34;5112244;28;20397;-82
2024/02/26 08:05:22;;;;;;;9.80;5.68;;;;;;;9.58;73.25;94284.13;5110611;28;20028;-83
2024/02/26 08:07:48;;;;;;;7.65;5.32;;;;;;;9.59;71.98;94258.06;5093720;28;20047;-82
2024/02/26 08:10:14;;;;;;;7.88;5.50;;;;;;;9.76;71.73;94282.53;5093386;28;20028;-83
2024/02/26 08:12:39;;;;;;;8.73;6.00;;;;;;;9.79;72.29;94282.25;5110788;28;20038;-83
2024/02/26 08:15:06;;;;;;;9.10;5.70;;;;;;;9.73;72.58;94272.44;5110625;28;20577;-82
2024/02/26 08:17:32;;;;;;;9.40;6.25;;;;;;;10.04;72.19;94282.69;5093838;28;20548;-82
2024/02/26 08:19:59;;;;;;;7.38;6.28;;;;;;;9.87;71.71;94275.59;5110435;28;20091;-81
2024/02/26 08:22:24;;;;;;;6.63;5.45;;;;;;;9.85;71.17;94245.38;5076739;28;20039;-82
2024/02/26 08:24:49;;;;;;;7.80;5.18;;;;;;;10.13;71.28;94274.06;5110524;28;20016;-83
2024/02/26 08:27:15;;;;;;;6.35;5.50;;;;;;;10.09;71.88;94277.91;5093312;28;20141;-84
2024/02/26 08:29:40;;;;;;;8.23;6.10;;;;;;;10.42;71.26;94283.63;5110381;28;20417;-82
2024/02/26 08:32:07;;;;;;;8.27;5.93;;;;;;;10.56;69.64;94275.44;5111540;28;20031;-83
2024/02/26 08:34:32;;;;;;;18.70;6.28;;;;;;;10.67;69.32;94272.66;5093626;28;20024;-82
2024/02/26 08:36:58;;;;;;;7.00;6.00;;;;;;;10.59;70.06;94276.94;5093523;28;20046;-84
2024/02/26 08:39:23;;;;;;;7.70;6.05;;;;;;;10.06;71.39;94283.38;5095842;28;20450;-83
2024/02/26 08:41:49;;;;;;;10.90;6.38;;;;;;;10.54;69.93;94282.53;5097601;28;20042;-83
2024/02/26 08:44:15;;;;;;;9.50;6.25;;;;;;;10.58;70.01;94276.09;5114459;28;20020;-83
2024/02/26 08:46:40;;;;;;;10.00;6.93;;;;;;;10.56;69.98;94280.63;5097364;28;20424;-83
2024/02/26 08:49:05;;;;;;;8.48;5.78;;;;;;;10.74;68.94;94271.13;5097266;28;20036;-83
2024/02/26 08:51:31;;;;;;;8.15;5.72;;;;;;;10.80;69.15;94287.94;5114406;28;20028;-83
2024/02/26 08:53:57;;;;;;;7.60;5.88;;;;;;;10.74;69.20;94281.53;5115562;28;20049;-83
2024/02/26 08:56:22;;;;;;;8.57;5.45;;;;;;;10.74;68.89;94262.53;5113927;28;20038;-84
2024/02/26 08:58:53;;;;;;;8.45;5.65;;;;;;;10.80;68.42;94277.53;5115619;28;20035;-83
2024/02/26 09:01:19;;;;;;;6.82;5.68;;;;;;;10.67;68.55;94266.63;5098152;28;20035;-83
2024/02/26 09:03:44;;;;;;;7.20;5.40;;;;;;;10.74;68.36;94273.72;5114217;28;20032;-81
2024/02/26 09:06:11;;;;;;;9.40;6.00;;;;;;;11.04;67.57;94279.66;5114014;28;20035;-83
2024/02/26 09:08:37;;;;;;;8.07;5.88;;;;;;;11.07;68.02;94268.16;5097163;28;20038;-83
2024/02/26 09:11:03;;;;;;;6.45;5.07;;;;;;;11.04;68.21;94271.06;5114046;28;20031;-83
2024/02/26 09:13:28;;;;;;;7.88;5.55;;;;;;;11.12;65.93;94265.97;5096946;28;20031;-83
2024/02/26 09:15:54;;;;;;;9.27;5.88;;;;;;;11.11;66.25;94270.31;5096555;28;20497;-82
2024/02/26 09:18:20;;;;;;;7.35;5.00;;;;;;;11.05;66.39;94273.50;5114819;28;20039;-83
2024/02/26 09:20:45;;;;;;;8.15;4.82;;;;;;;11.04;65.72;94274.47;5097084;28;20481;-83
2024/02/26 09:23:11;;;;;;;8.45;5.55;;;;;;;11.09;66.97;94271.44;5096805;28;20028;-82
2024/02/26 09:25:36;;;;;;;7.70;5.60;;;;;;;11.21;66.67;94264.28;5096872;28;20541;-83
2024/02/26 09:28:02;;;;;;;9.82;6.40;;;;;;;11.13;67.70;94260.59;5113540;28;20058;-83
2024/02/26 09:30:27;;;;;;;7.32;5.55;;;;;;;11.35;66.00;94262.00;5079695;28;20027;-83
2024/02/26 09:32:52;;;;;;;7.72;5.60;;;;;;;11.41;66.06;94263.19;5113655;28;20043;-83
2024/02/26 09:35:18;;;;;;;10.18;6.22;;;;;;;11.09;69.25;94261.84;5079446;28;20034;-83
2024/02/26 09:37:44;;;;;;;8.38;6.47;;;;;;;11.49;66.43;94260.69;5113704;28;20404;-83
2024/02/26 09:40:11;;;;;;;16.90;10.02;;;;;;;11.43;67.16;94253.47;5113432;28;20023;-81
2024/02/26 09:42:37;;;;;;;8.85;6.20;;;;;;;11.44;66.44;94249.09;5113417;28;20031;-83
2024/02/26 09:45:07;;;;;;;7.30;5.65;;;;;;;11.65;65.58;94261.84;5096132;28;20035;-81
2024/02/26 09:47:32;;;;;;;9.57;6.13;;;;;;;11.58;65.45;94246.81;5113367;28;20032;-82
2024/02/26 09:49:58;;;;;;;8.60;6.28;;;;;;;11.53;65.25;94241.25;5095836;28;20027;-83
2024/02/26 09:52:24;;;;;;;8.65;6.25;;;;;;;11.49;66.10;94258.09;5096470;28;20036;-83
2024/02/26 09:54:49;;;;;;;9.43;6.60;;;;;;;11.71;64.92;94249.06;5112930;28;20068;-83
2024/02/26 09:57:16;;;;;;;8.00;6.45;;;;;;;11.81;65.41;94246.38;5096049;28;20032;-83
2024/02/26 09:59:42;;;;;;;7.97;6.00;;;;;;;11.77;64.67;94239.84;5079608;28;20020;-83
2024/02/26 10:02:14;;;;;;;8.00;5.70;;;;;;;11.99;64.13;94244.63;5079155;28;20123;-83
2024/02/26 10:04:40;;;;;;;10.52;6.45;;;;;;;12.02;64.59;94249.53;5095947;28;20032;-81
2024/02/26 10:07:09;;;;;;;8.18;5.93;;;;;;;12.02;63.03;94225.28;5114039;28;20562;-83
2024/02/26 10:09:35;;;;;;;8.20;5.50;;;;;;;12.23;64.30;94253.59;5079489;28;20081;-84
2024/02/26 10:12:00;;;;;;;8.02;6.57;;;;;;;11.88;65.18;94252.66;5096033;28;20040;-84
2024/02/26 10:14:25;;;;;;;7.80;6.13;;;;;;;12.10;64.52;94240.16;5112796;28;20026;-84
2024/02/26 10:16:51;;;;;;;7.88;6.25;;;;;;;12.20;64.24;94244.34;5112461;28;20035;-83
2024/02/26 10:19:29;;;;;;;7.00;5.75;;;;;;;12.08;62.36;94240.31;5095824;28;20031;-83
2024/02/26 10:22:03;;;;;;;7.93;6.13;;;;;;;12.16;62.82;94229.16;5079324;28;20413;-83
2024/02/26 10:24:28;;;;;;;9.27;6.07;;;;;;;11.99;63.36;94223.81;5096128;28;20031;-83
2024/02/26 10:26:54;;;;;;;8.93;5.80;;;;;;;12.10;62.97;94221.94;5112317;28;20078;-83
2024/02/26 10:29:20;;;;;;;11.95;5.82;;;;;;;12.08;63.03;94224.69;5095613;28;20015;-82
2024/02/26 10:31:45;;;;;;;6.75;5.72;;;;;;;12.16;61.55;94203.13;5095513;28;20035;-83
2024/02/26 10:34:11;;;;;;;6.75;5.63;;;;;;;12.24;61.50;94240.44;5095333;28;20031;-84
2024/02/26 10:36:36;;;;;;;7.47;5.75;;;;;;;12.15;62.45;94217.13;5078187;28;20043;-83
2024/02/26 10:39:05;;;;;;;8.93;5.90;;;;;;;11.95;63.92;94206.88;5112365;28;20031;-81
2024/02/26 10:41:31;;;;;;;7.20;5.60;;;;;;;12.08;61.50;94201.25;5112421;28;20043;-84
2024/02/26 10:43:57;;;;;;;7.50;5.85;;;;;;;12.09;62.52;94200.31;5095240;28;20610;-82
2024/02/26 10:46:22;;;;;;;7.97;5.90;;;;;;;12.27;60.20;94201.06;5111822;28;20031;-84
2024/02/26 10:48:51;;;;;;;7.45;5.13;;;;;;;12.19;60.10;94195.81;5078300;28;20436;-83
2024/02/26 10:51:18;;;;;;;6.95;6.00;;;;;;;12.10;62.49;94204.53;5078130;28;20501;-83
2024/02/26 10:53:44;;;;;;;7.50;5.75;;;;;;;12.19;60.75;94208.00;5095250;28;20042;-83
2024/02/26 10:56:09;;;;;;;7.15;5.45;;;;;;;12.28;60.69;94213.13;5094772;28;20036;-84
2024/02/26 10:58:34;;;;;;;6.05;5.07;;;;;;;12.15;60.19;94202.31;5094874;28;20032;-84
2024/02/26 11:01:00;;;;;;;6.00;5.38;;;;;;;12.17;61.47;94205.56;5094101;28;20024;-84
2024/02/26 11:03:25;;;;;;;7.93;5.47;;;;;;;12.23;60.04;94199.75;5077767;28;20488;-83
2024/02/26 11:05:51;;;;;;;9.98;5.85;;;;;;;12.21;60.66;94206.09;5094855;28;20020;-83
2024/02/26 11:08:21;;;;;;;9.23;5.88;;;;;;;12.38;59.96;94202.63;5112985;27;20035;-83
2024/02/26 11:10:52;;;;;;;6.63;5.72;;;;;;;12.52;59.63;94202.06;5078319;28;20031;-84
2024/02/26 11:13:18;;;;;;;7.97;5.45;;;;;;;12.40;61.08;94202.47;5112866;28;20032;-84
2024/02/26 11:15:47;;;;;;;7.65;5.00;;;;;;;12.62;60.44;94196.75;5094587;28;20032;-83
2024/02/26 11:18:12;;;;;;;7.38;5.50;;;;;;;12.60;59.68;94197.88;5094755;28;20031;-83
2024/02/26 11:20:38;;;;;;;5.97;5.38;;;;;;;12.46;59.42;94186.22;5094633;28;20481;-82
2024/02/26 11:23:04;;;;;;;8.35;5.18;;;;;;;12.58;58.99;94197.22;5094711;28;20027;-84
2024/02/26 11:25:29;;;;;;;6.82;5.30;;;;;;;12.69;59.82;94195.16;5094684;28;20078;-83
2024/02/26 11:27:57;;;;;;;6.55;5.40;;;;;;;12.62;61.15;94185.50;5094253;28;20056;-83
2024/02/26 11:30:23;;;;;;;5.97;5.18;;;;;;;12.88;58.89;94194.09;5077879;28;20024;-83
2024/02/26 11:32:48;;;;;;;9.07;5.35;;;;;;;12.91;57.52;94166.91;5094544;28;20035;-83
2024/02/26 11:35:16;;;;;;;6.68;5.32;;;;;;;12.82;58.82;94199.13;5094343;28;20081;-85
2024/02/26 11:37:41;;;;;;;8.77;5.20;;;;;;;12.66;58.55;94179.81;5111120;28;20028;-83
2024/02/26 11:40:14;;;;;;;6.82;4.82;;;;;;;12.79;58.11;94192.44;5077399;28;20024;-84
2024/02/26 11:42:45;;;;;;;6.53;4.82;;;;;;;12.52;59.36;94189.03;5112781;28;20081;-83
2024/02/26 11:45:39;;;;;;;7.72;4.50;;;;;;;12.83;57.67;94191.16;5094014;28;20075;-81
2024/02/26 11:48:05;;;;;;;6.45;4.65;;;;;;;12.76;58.36;94184.94;5112667;28;20043;-83
2024/02/26 11:50:40;;;;;;;7.43;4.95;;;;;;;12.74;58.18;94184.28;5116473;27;20027;-82